• Join FlightAware (Why Join?)
  • Login
  • US Flag 
12:49AM EDT


 

Airport Tracker/Info


-or-


 

Live Flight TrackerFlight Track Log ✈ N606FT ✈ 29-Aug-2013 ✈ KMLB - KOBE

Flight Track Log - Related Links

Times and Time Zones

All times are in EDT time to prevent confusion due to time zone crossing. See the N606FT flight status page for this flight to view local times or setup timezone preferences in your user account.

Time Position Orientation Groundspeed Altitude Reporting Facility
EDT Latitude Longitude Course Direction KTS MPH feet Rate Location/Type
07:58AM 28.2833 -80.7667 180° South 91 105 3,500  Level Orlando TRACON
07:59AM 28.2667 -80.7667 180° South 105 121 3,600  Climbing Orlando TRACON
08:00AM 28.2333 -80.7667 180° South 112 129 3,600 -60 Level Orlando TRACON
08:01AM 28.2000 -80.7667 180° South 107 123 3,500  Descending Orlando TRACON
08:02AM 28.1667 -80.7667 180° South 107 123 3,600  Climbing Orlando TRACON
08:03AM 28.1333 -80.7667 180° South 109 125 3,500 -60 Descending Orlando TRACON
08:03AM 28.1167 -80.7667 180° South 109 125 3,500  Level Orlando TRACON
08:04AM 28.0833 -80.7667 180° South 101 116 3,600  Climbing Orlando TRACON
08:05AM 28.0500 -80.7667 180° South 103 119 3,600  Level Orlando TRACON
08:06AM 28.0333 -80.7667 180° South 101 116 3,600 -60 Level Orlando TRACON
08:08AM 27.9739 -80.7711 184° South 104 120 3,500 -60 Descending Miami Center
08:09AM 27.9489 -80.7703 178° South 104 120 3,500  Level Miami Center
08:10AM 27.9178 -80.7692 178° South 104 120 3,500  Level Miami Center
08:11AM 27.8864 -80.7706 182° South 104 120 3,500  Level Miami Center
08:12AM 27.8592 -80.7744 187° South 104 120 3,500  Level Miami Center
08:13AM 27.8275 -80.7803 189° South 104 120 3,500  Level Miami Center
08:14AM 27.8025 -80.7794 178° South 104 120 3,600  Climbing Miami Center
08:15AM 27.7733 -80.7808 182° South 104 120 3,500  Descending Miami Center
08:16AM 27.7400 -80.7819 182° South 104 120 3,600  Climbing Miami Center
08:17AM 27.7108 -80.7808 178° South 104 120 3,600  Level Miami Center
08:18AM 27.6817 -80.7753 170° South 104 120 3,600  Level Miami Center
08:19AM 27.6547 -80.7697 170° South 104 120 3,600 -60 Level Miami Center
08:20AM 27.6256 -80.7686 178° South 104 120 3,500 -60 Descending Miami Center
08:21AM 27.5942 -80.7675 178° South 104 120 3,500  Level Miami Center
08:22AM 27.5650 -80.7689 182° South 104 120 3,500  Level Miami Center
08:23AM 27.5336 -80.7678 178° South 104 120 3,500  Level Miami Center
08:24AM 27.5086 -80.7647 174° South 104 120 3,600  Climbing Miami Center
08:25AM 27.4814 -80.7683 187° South 104 120 3,500 -120 Descending Miami Center